sensor_id;sensor_type;location;lat;lon;timestamp;pressure;altitude;pressure_sealevel;temperature;humidity
24302;BME280;12421;49.732;20.078;2023-02-03T00:03:31;97226.70;;;0.92;79.14
24302;BME280;12421;49.732;20.078;2023-02-03T00:25:13;97243.83;;;0.88;78.59
24302;BME280;12421;49.732;20.078;2023-02-03T00:35:57;97250.87;;;0.81;78.62
24302;BME280;12421;49.732;20.078;2023-02-03T00:46:51;97275.96;;;0.76;78.25
24302;BME280;12421;49.732;20.078;2023-02-03T01:08:44;97285.82;;;0.66;78.36
24302;BME280;12421;49.732;20.078;2023-02-03T01:42:07;97312.29;;;0.57;78.05
24302;BME280;12421;49.732;20.078;2023-02-03T01:52:48;97308.56;;;0.54;77.76
24302;BME280;12421;49.732;20.078;2023-02-03T02:03:41;97298.13;;;0.52;78.00
24302;BME280;12421;49.732;20.078;2023-02-03T03:20:01;97281.12;;;0.24;76.32
24302;BME280;12421;49.732;20.078;2023-02-03T04:14:49;97257.65;;;-0.39;76.54
24302;BME280;12421;49.732;20.078;2023-02-03T04:25:34;97222.80;;;-0.39;75.93
24302;BME280;12421;49.732;20.078;2023-02-03T04:36:13;97211.36;;;-0.55;75.61
24302;BME280;12421;49.732;20.078;2023-02-03T04:47:10;97211.77;;;-0.63;75.97
24302;BME280;12421;49.732;20.078;2023-02-03T04:57:58;97224.56;;;-0.57;76.53
24302;BME280;12421;49.732;20.078;2023-02-03T05:09:00;97218.20;;;-0.47;76.82
24302;BME280;12421;49.732;20.078;2023-02-03T05:19:37;97211.89;;;-0.45;76.28
24302;BME280;12421;49.732;20.078;2023-02-03T05:30:03;97202.52;;;-0.56;74.92
24302;BME280;12421;49.732;20.078;2023-02-03T05:51:16;97192.05;;;-0.74;75.21
24302;BME280;12421;49.732;20.078;2023-02-03T06:02:25;97179.80;;;-0.93;74.98
24302;BME280;12421;49.732;20.078;2023-02-03T06:13:29;97171.91;;;-1.10;75.57
24302;BME280;12421;49.732;20.078;2023-02-03T06:23:31;97151.77;;;-1.05;75.55
24302;BME280;12421;49.732;20.078;2023-02-03T06:45:15;97106.64;;;-0.91;75.49
24302;BME280;12421;49.732;20.078;2023-02-03T06:56:12;97094.54;;;-0.92;75.12
24302;BME280;12421;49.732;20.078;2023-02-03T07:06:51;97090.28;;;-0.81;74.63
24302;BME280;12421;49.732;20.078;2023-02-03T07:17:24;97088.20;;;-0.51;74.57
24302;BME280;12421;49.732;20.078;2023-02-03T07:38:20;97072.24;;;0.03;72.82
24302;BME280;12421;49.732;20.078;2023-02-03T07:49:17;97056.54;;;0.36;71.92
24302;BME280;12421;49.732;20.078;2023-02-03T07:59:31;97044.36;;;0.86;71.30
24302;BME280;12421;49.732;20.078;2023-02-03T08:09:35;97028.44;;;1.23;70.32
24302;BME280;12421;49.732;20.078;2023-02-03T08:19:42;97017.88;;;1.35;68.90
24302;BME280;12421;49.732;20.078;2023-02-03T08:40:25;96992.05;;;1.82;67.74
24302;BME280;12421;49.732;20.078;2023-02-03T08:50:35;96974.05;;;2.04;67.55
24302;BME280;12421;49.732;20.078;2023-02-03T09:00:49;96960.29;;;2.31;66.23
24302;BME280;12421;49.732;20.078;2023-02-03T09:11:21;96939.39;;;2.51;64.79
24302;BME280;12421;49.732;20.078;2023-02-03T09:21:35;96923.69;;;2.71;65.15
24302;BME280;12421;49.732;20.078;2023-02-03T09:31:59;96914.55;;;3.13;64.77
24302;BME280;12421;49.732;20.078;2023-02-03T09:42:42;96897.45;;;3.59;63.90
24302;BME280;12421;49.732;20.078;2023-02-03T10:26:28;96813.43;;;4.39;60.38
24302;BME280;12421;49.732;20.078;2023-02-03T10:37:00;96768.15;;;4.31;60.35
24302;BME280;12421;49.732;20.078;2023-02-03T10:58:10;96693.29;;;3.98;62.46
24302;BME280;12421;49.732;20.078;2023-02-03T11:08:32;96658.02;;;3.65;62.86
24302;BME280;12421;49.732;20.078;2023-02-03T11:19:12;96630.56;;;3.18;64.43
24302;BME280;12421;49.732;20.078;2023-02-03T11:30:06;96600.17;;;2.52;66.40
24302;BME280;12421;49.732;20.078;2023-02-03T12:58:36;96324.45;;;1.22;75.23
24302;BME280;12421;49.732;20.078;2023-02-03T13:20:23;96262.52;;;1.19;76.32
24302;BME280;12421;49.732;20.078;2023-02-03T13:42:40;96205.63;;;1.17;77.49
24302;BME280;12421;49.732;20.078;2023-02-03T14:25:53;96099.03;;;1.21;80.27
24302;BME280;12421;49.732;20.078;2023-02-03T14:46:38;96042.80;;;1.17;81.43
24302;BME280;12421;49.732;20.078;2023-02-03T15:07:41;96000.38;;;1.10;83.32
24302;BME280;12421;49.732;20.078;2023-02-03T15:17:59;95985.74;;;1.13;83.60
24302;BME280;12421;49.732;20.078;2023-02-03T15:28:27;95976.64;;;1.19;83.74
24302;BME280;12421;49.732;20.078;2023-02-03T15:38:38;95962.55;;;1.27;83.73
24302;BME280;12421;49.732;20.078;2023-02-03T15:49:01;95955.79;;;1.46;83.82
24302;BME280;12421;49.732;20.078;2023-02-03T16:09:43;95971.77;;;1.77;83.87
24302;BME280;12421;49.732;20.078;2023-02-03T16:31:01;95975.44;;;2.06;83.69
24302;BME280;12421;49.732;20.078;2023-02-03T16:41:25;95951.27;;;2.19;83.43
24302;BME280;12421;49.732;20.078;2023-02-03T16:51:48;95943.33;;;2.22;83.19
24302;BME280;12421;49.732;20.078;2023-02-03T17:01:52;95946.44;;;2.19;83.18
24302;BME280;12421;49.732;20.078;2023-02-03T17:11:56;95962.15;;;2.13;83.77
24302;BME280;12421;49.732;20.078;2023-02-03T17:22:00;95984.12;;;2.10;84.28
24302;BME280;12421;49.732;20.078;2023-02-03T17:32:05;95986.17;;;2.09;84.48
24302;BME280;12421;49.732;20.078;2023-02-03T17:42:09;95994.18;;;2.14;84.86
24302;BME280;12421;49.732;20.078;2023-02-03T17:52:31;96000.67;;;2.28;84.81
24302;BME280;12421;49.732;20.078;2023-02-03T18:02:53;96002.83;;;2.43;84.61
24302;BME280;12421;49.732;20.078;2023-02-03T18:12:59;96010.34;;;2.53;84.53
24302;BME280;12421;49.732;20.078;2023-02-03T18:23:03;96011.25;;;2.63;84.42
24302;BME280;12421;49.732;20.078;2023-02-03T18:33:08;96020.31;;;2.70;84.33
24302;BME280;12421;49.732;20.078;2023-02-03T18:43:16;96025.33;;;2.72;84.52
24302;BME280;12421;49.732;20.078;2023-02-03T18:53:22;96037.26;;;2.68;84.44
24302;BME280;12421;49.732;20.078;2023-02-03T19:03:29;96041.64;;;2.76;84.88
24302;BME280;12421;49.732;20.078;2023-02-03T19:13:34;96041.13;;;2.76;84.94
24302;BME280;12421;49.732;20.078;2023-02-03T19:23:52;96050.84;;;2.79;84.84
24302;BME280;12421;49.732;20.078;2023-02-03T19:33:59;96042.53;;;2.81;85.13
24302;BME280;12421;49.732;20.078;2023-02-03T19:44:08;96050.34;;;2.86;85.14
24302;BME280;12421;49.732;20.078;2023-02-03T19:54:23;96048.81;;;2.91;84.76
24302;BME280;12421;49.732;20.078;2023-02-03T20:04:35;96052.63;;;2.93;84.60
24302;BME280;12421;49.732;20.078;2023-02-03T20:14:45;96057.31;;;2.95;84.69
24302;BME280;12421;49.732;20.078;2023-02-03T20:24:51;96065.11;;;2.92;84.57
24302;BME280;12421;49.732;20.078;2023-02-03T20:35:01;96060.73;;;2.83;84.67
24302;BME280;12421;49.732;20.078;2023-02-03T20:45:18;96054.85;;;2.83;84.64
24302;BME280;12421;49.732;20.078;2023-02-03T20:55:30;96047.77;;;2.88;84.64
24302;BME280;12421;49.732;20.078;2023-02-03T21:05:40;96049.52;;;2.96;84.44
24302;BME280;12421;49.732;20.078;2023-02-03T21:15:57;96048.48;;;2.98;84.14
24302;BME280;12421;49.732;20.078;2023-02-03T21:26:28;96042.56;;;2.88;83.87
24302;BME280;12421;49.732;20.078;2023-02-03T21:36:37;96058.98;;;2.78;84.13
24302;BME280;12421;49.732;20.078;2023-02-03T21:46:45;96067.64;;;2.79;84.21
24302;BME280;12421;49.732;20.078;2023-02-03T21:56:53;96074.09;;;2.83;84.35
24302;BME280;12421;49.732;20.078;2023-02-03T22:07:00;96080.52;;;2.86;84.25
24302;BME280;12421;49.732;20.078;2023-02-03T22:17:06;96071.13;;;2.80;84.37
24302;BME280;12421;49.732;20.078;2023-02-03T22:27:10;96072.80;;;2.71;84.64
24302;BME280;12421;49.732;20.078;2023-02-03T22:37:15;96061.50;;;2.65;85.09
24302;BME280;12421;49.732;20.078;2023-02-03T22:47:19;96050.46;;;2.71;85.14
24302;BME280;12421;49.732;20.078;2023-02-03T22:57:24;96051.70;;;2.80;85.47
24302;BME280;12421;49.732;20.078;2023-02-03T23:07:28;96048.10;;;2.88;85.23
24302;BME280;12421;49.732;20.078;2023-02-03T23:17:35;96037.48;;;2.80;85.06
24302;BME280;12421;49.732;20.078;2023-02-03T23:27:39;96045.98;;;2.78;85.07
24302;BME280;12421;49.732;20.078;2023-02-03T23:37:43;96053.61;;;2.78;85.07
24302;BME280;12421;49.732;20.078;2023-02-03T23:47:48;96047.36;;;2.76;85.17
